createdAt,value
2023-02-19T00:00:09.238Z,953
2023-02-19T00:01:11.990Z,953.1
2023-02-19T00:02:14.258Z,953.1
2023-02-19T00:03:16.255Z,953.1
2023-02-19T00:04:18.062Z,953.1
2023-02-19T00:05:19.937Z,953.1
2023-02-19T00:06:21.738Z,953
2023-02-19T00:07:23.720Z,953
2023-02-19T00:08:25.569Z,953.1
2023-02-19T00:09:27.521Z,953.1
2023-02-19T00:10:29.373Z,953
2023-02-19T00:11:31.212Z,952.9
2023-02-19T00:12:33.072Z,953
2023-02-19T00:13:35.020Z,953
2023-02-19T00:14:36.865Z,953
2023-02-19T00:15:38.755Z,953.1
2023-02-19T00:16:40.667Z,953.1
2023-02-19T00:17:42.415Z,953
2023-02-19T00:18:44.263Z,952.9
2023-02-19T00:19:46.227Z,953
2023-02-19T00:20:48.107Z,952.9
2023-02-19T00:21:49.926Z,953
2023-02-19T00:22:51.792Z,953
2023-02-19T00:23:53.628Z,953
2023-02-19T00:24:55.579Z,953
2023-02-19T00:26:18.855Z,952.9
2023-02-19T00:27:20.680Z,952.9
2023-02-19T00:28:22.525Z,953
2023-02-19T00:29:24.484Z,953
2023-02-19T00:30:26.483Z,953
2023-02-19T00:31:33.493Z,952.9
2023-02-19T00:32:35.662Z,952.9
2023-02-19T00:33:37.505Z,952.9
2023-02-19T00:34:39.267Z,952.8
2023-02-19T00:35:41.411Z,952.8
2023-02-19T00:36:43.512Z,952.8
2023-02-19T00:37:45.433Z,952.8
2023-02-19T00:38:47.171Z,952.9
2023-02-19T00:39:49.018Z,952.8
2023-02-19T00:40:50.962Z,952.8
2023-02-19T00:41:52.822Z,952.9
2023-02-19T00:42:54.679Z,952.8
2023-02-19T00:43:56.538Z,952.8
2023-02-19T00:44:58.380Z,952.8
2023-02-19T00:46:00.231Z,952.9
2023-02-19T00:47:02.069Z,952.9
2023-02-19T00:48:03.924Z,952.8
2023-02-19T00:49:05.784Z,952.8
2023-02-19T00:50:07.628Z,952.7
2023-02-19T00:51:10.638Z,952.8
2023-02-19T00:52:13.295Z,952.8
2023-02-19T00:53:15.119Z,952.8
2023-02-19T00:54:17.067Z,952.7
2023-02-19T00:55:18.917Z,952.7
2023-02-19T00:56:20.674Z,952.6
2023-02-19T00:57:22.620Z,952.6
2023-02-19T00:58:24.371Z,952.7
2023-02-19T00:59:26.221Z,952.7
2023-02-19T01:00:28.072Z,952.6
2023-02-19T01:01:29.811Z,952.6
2023-02-19T01:02:31.667Z,952.6
2023-02-19T01:03:33.628Z,952.6
2023-02-19T01:04:35.592Z,952.6
2023-02-19T01:05:37.528Z,952.6
2023-02-19T01:06:39.292Z,952.5
2023-02-19T01:07:41.254Z,952.6
2023-02-19T01:08:43.070Z,952.6
2023-02-19T01:09:44.928Z,952.6
2023-02-19T01:10:46.694Z,952.6
2023-02-19T01:11:48.626Z,952.7
2023-02-19T01:12:50.476Z,952.8
2023-02-19T01:13:52.315Z,952.7
2023-02-19T01:14:54.169Z,952.7
2023-02-19T01:15:56.183Z,952.6
2023-02-19T01:16:58.078Z,952.6
2023-02-19T01:17:59.954Z,952.6
2023-02-19T01:19:01.782Z,952.5
2023-02-19T01:20:03.728Z,952.5
2023-02-19T01:21:05.586Z,952.6
2023-02-19T01:22:07.431Z,952.6
2023-02-19T01:23:09.511Z,952.5
2023-02-19T01:24:13.996Z,952.6
2023-02-19T01:25:15.848Z,952.5
2023-02-19T01:26:17.713Z,952.5
2023-02-19T01:27:19.552Z,952.5
2023-02-19T01:28:21.389Z,952.6
2023-02-19T01:29:23.241Z,952.6
2023-02-19T01:30:25.341Z,952.7
2023-02-19T01:31:27.786Z,952.7
2023-02-19T01:32:29.813Z,952.8
2023-02-19T01:33:31.629Z,952.8
2023-02-19T01:34:33.417Z,952.7
2023-02-19T01:35:35.267Z,952.7
2023-02-19T01:36:37.126Z,952.8
2023-02-19T01:37:39.038Z,952.8
2023-02-19T01:38:40.951Z,952.8
2023-02-19T01:39:42.865Z,952.8
2023-02-19T01:40:44.728Z,952.9
2023-02-19T01:41:46.574Z,952.9
2023-02-19T01:42:48.435Z,952.9
2023-02-19T01:43:50.239Z,952.9
2023-02-19T01:44:52.236Z,952.9
2023-02-19T01:45:54.177Z,952.9
2023-02-19T01:46:56.272Z,952.9
2023-02-19T01:47:58.292Z,953
2023-02-19T01:49:00.153Z,953.1
2023-02-19T01:50:01.993Z,953
2023-02-19T01:51:03.830Z,953.1
2023-02-19T01:52:05.684Z,953.1
2023-02-19T01:53:07.531Z,953.1
2023-02-19T01:54:09.385Z,953.1
2023-02-19T01:55:11.233Z,953.1
2023-02-19T01:56:12.992Z,953.1
2023-02-19T01:57:14.939Z,953
2023-02-19T01:58:16.783Z,953.1
2023-02-19T01:59:18.640Z,953.1
2023-02-19T02:00:20.484Z,953.1
2023-02-19T02:01:22.343Z,953.1
2023-02-19T02:02:24.291Z,953.2
2023-02-19T02:03:26.146Z,953.2
2023-02-19T02:04:27.994Z,953.1
2023-02-19T02:05:29.745Z,953.1
2023-02-19T02:06:37.112Z,953.1
2023-02-19T02:07:39.070Z,953
2023-02-19T02:08:40.825Z,953
2023-02-19T02:09:42.788Z,953
2023-02-19T02:10:44.549Z,953
2023-02-19T02:11:46.390Z,953
2023-02-19T02:12:48.120Z,953
2023-02-19T02:13:49.882Z,953.1
2023-02-19T02:14:51.633Z,953
2023-02-19T02:15:53.578Z,953.1
2023-02-19T02:16:55.623Z,953.1
2023-02-19T02:17:57.475Z,953.1
2023-02-19T02:18:59.240Z,953.1
2023-02-19T02:20:00.992Z,953.1
2023-02-19T02:21:02.810Z,953
2023-02-19T02:22:04.678Z,952.9
2023-02-19T02:23:06.515Z,953
2023-02-19T02:24:08.370Z,953.1
2023-02-19T02:25:10.344Z,953.1
2023-02-19T02:26:12.175Z,953
2023-02-19T02:27:14.121Z,953.2
2023-02-19T02:28:15.964Z,953.1
2023-02-19T02:29:17.853Z,953
2023-02-19T02:30:19.965Z,953
2023-02-19T02:31:22.257Z,953.1
2023-02-19T02:32:24.186Z,953
2023-02-19T02:33:26.035Z,953
2023-02-19T02:34:27.885Z,953
2023-02-19T02:35:29.615Z,953
2023-02-19T02:36:34.144Z,953
2023-02-19T02:37:35.929Z,953
2023-02-19T02:38:37.744Z,953
2023-02-19T02:39:39.625Z,952.9
2023-02-19T02:40:41.458Z,953
2023-02-19T02:41:43.305Z,953
2023-02-19T02:42:45.151Z,953
2023-02-19T02:43:46.928Z,953
2023-02-19T02:44:48.740Z,953
2023-02-19T02:45:50.862Z,953
2023-02-19T02:46:52.859Z,953
2023-02-19T02:47:54.703Z,953
2023-02-19T02:48:56.581Z,953
2023-02-19T02:49:58.363Z,952.9
2023-02-19T02:51:00.182Z,952.9
2023-02-19T02:52:01.902Z,952.9
2023-02-19T02:53:03.754Z,953
2023-02-19T02:54:05.604Z,953
2023-02-19T02:55:07.491Z,952.9
2023-02-19T02:56:09.318Z,952.8
2023-02-19T02:57:11.155Z,952.9
2023-02-19T02:58:13.000Z,952.9
2023-02-19T02:59:14.856Z,952.9
2023-02-19T03:00:16.703Z,953
2023-02-19T03:01:18.771Z,952.9
2023-02-19T03:02:20.842Z,952.9
2023-02-19T03:03:22.768Z,953
2023-02-19T03:04:24.621Z,953
2023-02-19T03:05:26.573Z,952.9
2023-02-19T03:06:28.414Z,952.9
2023-02-19T03:07:30.372Z,953
2023-02-19T03:08:32.114Z,953
2023-02-19T03:09:33.972Z,953
2023-02-19T03:10:35.915Z,953
2023-02-19T03:11:37.531Z,953
2023-02-19T03:12:39.415Z,953
2023-02-19T03:13:41.267Z,953.1
2023-02-19T03:14:43.003Z,953.1
2023-02-19T03:15:44.866Z,953.1
2023-02-19T03:16:47.084Z,953.1
2023-02-19T03:17:48.993Z,953.1
2023-02-19T03:18:50.855Z,953.1
2023-02-19T03:19:52.588Z,953.1
2023-02-19T03:20:54.410Z,953.1
2023-02-19T03:21:56.312Z,953.1
2023-02-19T03:22:58.007Z,953.2
2023-02-19T03:23:59.869Z,953.3
2023-02-19T03:25:01.711Z,953.3
2023-02-19T03:26:03.564Z,953.2
2023-02-19T03:27:05.419Z,953.1
2023-02-19T03:28:10.024Z,953.2
2023-02-19T03:29:11.867Z,953.3
2023-02-19T03:30:14.008Z,953.3
2023-02-19T03:31:16.439Z,953.3
2023-02-19T03:32:18.832Z,953.3
2023-02-19T03:33:20.771Z,953.3
2023-02-19T03:34:22.666Z,953.4
2023-02-19T03:35:24.522Z,953.4
2023-02-19T03:36:26.239Z,953.4
2023-02-19T03:37:28.105Z,953.4
2023-02-19T03:38:29.959Z,953.3
2023-02-19T03:39:31.919Z,953.3
2023-02-19T03:40:33.782Z,953.3
2023-02-19T03:41:35.619Z,953.4
2023-02-19T03:42:37.468Z,953.5
2023-02-19T03:43:39.215Z,953.6
2023-02-19T03:44:41.058Z,953.5
2023-02-19T03:45:43.052Z,953.5
2023-02-19T03:46:44.954Z,953.5
2023-02-19T03:47:46.905Z,953.6
2023-02-19T03:48:48.756Z,953.6
2023-02-19T03:49:50.615Z,953.5
2023-02-19T03:50:52.567Z,953.5
2023-02-19T03:51:54.445Z,953.6
2023-02-19T03:52:56.158Z,953.5
2023-02-19T03:53:58.021Z,953.5
2023-02-19T03:54:59.967Z,953.5
2023-02-19T03:56:01.928Z,953.6
2023-02-19T03:57:03.671Z,953.6
2023-02-19T03:58:05.510Z,953.6
2023-02-19T03:59:07.263Z,953.6
2023-02-19T04:00:09.013Z,953.6
2023-02-19T04:01:12.318Z,953.6
2023-02-19T04:02:14.725Z,953.6
2023-02-19T04:03:16.638Z,953.6
2023-02-19T04:04:18.697Z,953.6
2023-02-19T04:05:20.628Z,953.7
2023-02-19T04:06:22.464Z,953.7
2023-02-19T04:07:24.233Z,953.7
2023-02-19T04:08:26.064Z,953.7
2023-02-19T04:09:27.809Z,953.7
2023-02-19T04:10:29.770Z,953.7
2023-02-19T04:11:31.620Z,953.7
2023-02-19T04:12:33.458Z,953.7
2023-02-19T04:13:35.313Z,953.7
2023-02-19T04:14:37.085Z,953.7
2023-02-19T04:15:38.936Z,953.7
2023-02-19T04:16:40.928Z,953.8
2023-02-19T04:17:45.484Z,953.7
2023-02-19T04:18:47.169Z,953.7
2023-02-19T04:19:48.975Z,953.8
2023-02-19T04:20:50.903Z,953.7
2023-02-19T04:21:52.672Z,953.7
2023-02-19T04:22:54.346Z,953.7
2023-02-19T04:23:56.165Z,953.7
2023-02-19T04:24:58.118Z,953.7
2023-02-19T04:25:59.978Z,953.7
2023-02-19T04:27:01.827Z,953.7
2023-02-19T04:28:03.665Z,953.7
2023-02-19T04:29:05.524Z,953.7
2023-02-19T04:30:07.546Z,953.7
2023-02-19T04:31:10.712Z,953.7
2023-02-19T04:32:13.044Z,953.7
2023-02-19T04:33:14.754Z,953.7
2023-02-19T04:34:16.614Z,953.8
2023-02-19T04:35:18.464Z,953.8
2023-02-19T04:36:20.417Z,953.8
2023-02-19T04:37:22.263Z,953.8
2023-02-19T04:38:24.107Z,953.8
2023-02-19T04:39:25.958Z,953.8
2023-02-19T04:40:30.368Z,953.8
2023-02-19T04:41:32.222Z,953.8
2023-02-19T04:42:34.067Z,953.9
2023-02-19T04:43:35.822Z,953.8
2023-02-19T04:44:37.663Z,953.9
2023-02-19T04:45:39.623Z,953.9
2023-02-19T04:46:43.511Z,953.8
2023-02-19T04:47:45.274Z,953.8
2023-02-19T04:48:47.121Z,953.8
2023-02-19T04:49:48.972Z,953.7
2023-02-19T04:50:50.914Z,953.7
2023-02-19T04:51:52.865Z,953.8
2023-02-19T04:52:54.723Z,953.8
2023-02-19T04:53:56.681Z,953.8
2023-02-19T04:54:58.522Z,953.9
2023-02-19T04:56:00.574Z,953.8
2023-02-19T04:57:02.544Z,953.8
2023-02-19T04:58:04.371Z,953.8
2023-02-19T04:59:06.236Z,953.8
2023-02-19T05:00:08.099Z,953.8
2023-02-19T05:01:11.519Z,953.8
2023-02-19T05:02:14.137Z,953.9
2023-02-19T05:03:16.084Z,953.9
2023-02-19T05:04:17.991Z,954
2023-02-19T05:05:19.998Z,953.9
2023-02-19T05:06:21.953Z,953.9
2023-02-19T05:07:23.798Z,953.9
2023-02-19T05:08:25.546Z,953.9
2023-02-19T05:09:27.498Z,953.9
2023-02-19T05:10:29.339Z,953.8
2023-02-19T05:11:31.293Z,953.9
2023-02-19T05:12:33.154Z,953.8
2023-02-19T05:13:35.225Z,953.9
2023-02-19T05:14:37.148Z,954
2023-02-19T05:15:39.124Z,954
2023-02-19T05:16:41.071Z,954
2023-02-19T05:17:42.910Z,953.9
2023-02-19T05:18:44.721Z,953.9
2023-02-19T05:19:46.503Z,954
2023-02-19T05:20:48.266Z,954
2023-02-19T05:21:50.100Z,954
2023-02-19T05:22:51.956Z,954
2023-02-19T05:23:53.741Z,954.1
2023-02-19T05:24:55.556Z,954.1
2023-02-19T05:25:57.430Z,954.1
2023-02-19T05:26:59.347Z,954
2023-02-19T05:28:01.104Z,954
2023-02-19T05:29:02.846Z,954
2023-02-19T05:30:04.839Z,954
2023-02-19T05:31:06.740Z,954.1
2023-02-19T05:32:08.917Z,954.1
2023-02-19T05:33:10.869Z,954.1
2023-02-19T05:34:12.819Z,954.1
2023-02-19T05:35:14.661Z,954.1
2023-02-19T05:36:16.513Z,954.1
2023-02-19T05:37:18.362Z,954.2
2023-02-19T05:38:20.217Z,954.1
2023-02-19T05:39:21.928Z,954.2
2023-02-19T05:40:23.704Z,954.2
2023-02-19T05:41:25.559Z,954.2
2023-02-19T05:42:27.407Z,954.1
2023-02-19T05:43:29.263Z,954.1
2023-02-19T05:44:31.205Z,954.2
2023-02-19T05:45:33.033Z,954.2
2023-02-19T05:46:35.132Z,954.2
2023-02-19T05:47:37.063Z,954.2
2023-02-19T05:48:38.915Z,954.2
2023-02-19T05:49:40.684Z,954.2
2023-02-19T05:50:42.536Z,954.1
2023-02-19T05:51:44.195Z,954.1
2023-02-19T05:52:46.018Z,954.2
2023-02-19T05:53:47.876Z,954.2
2023-02-19T05:54:49.704Z,954.2
2023-02-19T05:55:51.503Z,954.2
2023-02-19T05:56:53.304Z,954.2
2023-02-19T05:57:55.258Z,954.2
2023-02-19T05:58:57.017Z,954.2
2023-02-19T05:59:58.862Z,954.2
2023-02-19T06:01:00.814Z,954.2
2023-02-19T06:02:02.670Z,954.2
2023-02-19T06:03:04.518Z,954.2
2023-02-19T06:04:06.727Z,954.3
2023-02-19T06:05:08.731Z,954.3
2023-02-19T06:06:10.579Z,954.3
2023-02-19T06:07:12.416Z,954.3
2023-02-19T06:08:14.213Z,954.3
2023-02-19T06:09:16.023Z,954.3
2023-02-19T06:10:18.006Z,954.4
2023-02-19T06:11:20.032Z,954.3
2023-02-19T06:12:21.780Z,954.4
2023-02-19T06:13:23.631Z,954.4
2023-02-19T06:14:25.579Z,954.4
2023-02-19T06:15:27.432Z,954.4
2023-02-19T06:16:29.589Z,954.4
2023-02-19T06:17:31.329Z,954.4
2023-02-19T06:18:33.076Z,954.4
2023-02-19T06:19:35.001Z,954.4
2023-02-19T06:20:36.888Z,954.4
2023-02-19T06:21:38.741Z,954.4
2023-02-19T06:22:40.679Z,954.4
2023-02-19T06:23:42.528Z,954.4
2023-02-19T06:24:44.584Z,954.4
2023-02-19T06:25:46.441Z,954.4
2023-02-19T06:26:48.181Z,954.5
2023-02-19T06:27:50.038Z,954.5
2023-02-19T06:28:51.986Z,954.5
2023-02-19T06:29:53.864Z,954.5
2023-02-19T06:30:55.585Z,954.5
2023-02-19T06:31:57.869Z,954.5
2023-02-19T06:33:00.006Z,954.4
2023-02-19T06:34:01.961Z,954.4
2023-02-19T06:35:03.729Z,954.4
2023-02-19T06:36:05.563Z,954.4
2023-02-19T06:37:07.295Z,954.5
2023-02-19T06:38:09.149Z,954.4
2023-02-19T06:39:11.110Z,954.4
2023-02-19T06:40:13.062Z,954.4
2023-02-19T06:41:15.208Z,954.5
2023-02-19T06:42:17.073Z,954.4
2023-02-19T06:43:18.914Z,954.5
2023-02-19T06:44:20.732Z,954.5
2023-02-19T06:45:22.514Z,954.5
2023-02-19T06:46:27.562Z,954.5
2023-02-19T06:47:29.603Z,954.5
2023-02-19T06:48:31.442Z,954.5
2023-02-19T06:49:33.400Z,954.5
2023-02-19T06:50:35.360Z,954.6
2023-02-19T06:51:37.203Z,954.6
2023-02-19T06:52:39.056Z,954.6
2023-02-19T06:53:40.902Z,954.6
2023-02-19T06:54:45.573Z,954.6
2023-02-19T06:55:47.388Z,954.6
2023-02-19T06:56:49.319Z,954.6
2023-02-19T06:57:51.096Z,954.6
2023-02-19T06:58:52.919Z,954.6
2023-02-19T06:59:54.779Z,954.6
2023-02-19T07:00:56.965Z,954.6
2023-02-19T07:01:58.973Z,954.6
2023-02-19T07:03:00.825Z,954.6
2023-02-19T07:04:02.798Z,954.6
2023-02-19T07:05:04.732Z,954.6
2023-02-19T07:06:06.574Z,954.6
2023-02-19T07:07:08.428Z,954.6
2023-02-19T07:08:10.198Z,954.6
2023-02-19T07:09:11.918Z,954.6
2023-02-19T07:10:13.766Z,954.6
2023-02-19T07:11:15.513Z,954.6
2023-02-19T07:12:17.465Z,954.6
2023-02-19T07:13:19.317Z,954.6
2023-02-19T07:14:21.189Z,954.6
2023-02-19T07:15:22.920Z,954.6
2023-02-19T07:16:24.867Z,954.6
2023-02-19T07:17:26.827Z,954.5
2023-02-19T07:18:28.677Z,954.6
2023-02-19T07:19:30.497Z,954.5
2023-02-19T07:20:32.373Z,954.5
2023-02-19T07:21:34.435Z,954.5
2023-02-19T07:22:36.275Z,954.5
2023-02-19T07:23:38.041Z,954.4
2023-02-19T07:24:39.877Z,954.4
2023-02-19T07:25:41.649Z,954.4
2023-02-19T07:26:43.465Z,954.5
2023-02-19T07:27:45.228Z,954.4
2023-02-19T07:28:47.046Z,954.4
2023-02-19T07:29:48.742Z,954.4
2023-02-19T07:30:50.590Z,954.3
2023-02-19T07:31:52.649Z,954.4
2023-02-19T07:32:54.671Z,954.3
2023-02-19T07:33:56.633Z,954.3
2023-02-19T07:34:58.472Z,954.3
2023-02-19T07:36:00.222Z,954.3
2023-02-19T07:37:02.036Z,954.2
2023-02-19T07:38:04.021Z,954.3
2023-02-19T07:39:05.705Z,954.3
2023-02-19T07:40:08.756Z,954.3
2023-02-19T07:41:11.731Z,954.3
2023-02-19T07:42:14.372Z,954.2
2023-02-19T07:43:16.317Z,954.2
2023-02-19T07:44:18.214Z,954.3
2023-02-19T07:45:19.950Z,954.2
2023-02-19T07:46:21.808Z,954.3
2023-02-19T07:47:23.742Z,954.2
2023-02-19T07:48:25.709Z,954.2
2023-02-19T07:49:27.422Z,954.2
2023-02-19T07:50:29.205Z,954.2
2023-02-19T07:51:31.043Z,954.3
2023-02-19T07:52:32.718Z,954.3
2023-02-19T07:53:34.554Z,954.2
2023-02-19T07:54:36.397Z,954.3
2023-02-19T07:55:38.144Z,954.3
2023-02-19T07:56:39.984Z,954.2
2023-02-19T07:57:41.837Z,954.2
2023-02-19T07:58:43.599Z,954.2
2023-02-19T07:59:45.440Z,954.2
2023-02-19T08:00:47.451Z,954.2
2023-02-19T08:01:49.449Z,954.2
2023-02-19T08:02:51.134Z,954.2
2023-02-19T08:03:52.943Z,954.2
2023-02-19T08:04:54.900Z,954.2
2023-02-19T08:05:56.558Z,954.2
2023-02-19T08:06:58.398Z,954.1
2023-02-19T08:08:00.242Z,954.2
2023-02-19T08:09:02.084Z,954.1
2023-02-19T08:10:04.043Z,954.2
2023-02-19T08:11:05.904Z,954.1
2023-02-19T08:12:07.731Z,954.1
2023-02-19T08:13:09.324Z,954.1
2023-02-19T08:14:11.129Z,954.1
2023-02-19T08:15:12.988Z,954.1
2023-02-19T08:16:43.425Z,954.1
2023-02-19T08:17:45.461Z,954.1
2023-02-19T08:18:47.303Z,954.1
2023-02-19T08:19:49.120Z,954.1
2023-02-19T08:20:50.933Z,954.1
2023-02-19T08:21:52.761Z,954.1
2023-02-19T08:22:54.572Z,954.1
2023-02-19T08:23:56.526Z,954.1
2023-02-19T08:24:58.403Z,954.2
2023-02-19T08:26:00.151Z,954.2
2023-02-19T08:27:01.929Z,954.2
2023-02-19T08:28:03.728Z,954.1
2023-02-19T08:29:05.605Z,954.2
2023-02-19T08:30:07.678Z,954.2
2023-02-19T08:31:11.290Z,954.2
2023-02-19T08:32:14.078Z,954.2
2023-02-19T08:33:16.076Z,954.1
2023-02-19T08:34:17.930Z,954.1
2023-02-19T08:35:19.766Z,954.2
2023-02-19T08:36:21.622Z,954.2
2023-02-19T08:37:23.483Z,954.2
2023-02-19T08:38:25.334Z,954.2
2023-02-19T08:39:27.174Z,954.2
2023-02-19T08:40:29.129Z,954.2
2023-02-19T08:41:31.076Z,954.2
2023-02-19T08:42:32.829Z,954.3
2023-02-19T08:43:34.791Z,954.3
2023-02-19T08:44:36.839Z,954.2
2023-02-19T08:45:38.691Z,954.2
2023-02-19T08:46:40.432Z,954.2
2023-02-19T08:47:42.272Z,954.2
2023-02-19T08:48:44.224Z,954.2
2023-02-19T08:49:45.982Z,954.2
2023-02-19T08:50:47.937Z,954.2
2023-02-19T08:51:49.674Z,954.2
2023-02-19T08:52:54.307Z,954.1
2023-02-19T08:53:56.135Z,954.1
2023-02-19T08:54:58.397Z,954.1
2023-02-19T08:56:00.872Z,954.1
2023-02-19T08:57:02.607Z,954.1
2023-02-19T08:58:04.355Z,954.1
2023-02-19T08:59:06.243Z,954.1
2023-02-19T09:00:07.990Z,954.1
2023-02-19T09:01:10.971Z,954
2023-02-19T09:02:13.511Z,954.1
2023-02-19T09:03:15.363Z,954
2023-02-19T09:04:17.532Z,954.1
2023-02-19T09:05:19.542Z,954
2023-02-19T09:06:21.435Z,953.9
2023-02-19T09:07:23.267Z,953.9
2023-02-19T09:08:25.136Z,953.9
2023-02-19T09:09:26.961Z,953.9
2023-02-19T09:10:28.807Z,953.9
2023-02-19T09:11:30.581Z,953.9
2023-02-19T09:12:32.416Z,953.9
2023-02-19T09:13:34.408Z,953.9
2023-02-19T09:14:36.211Z,953.9
2023-02-19T09:15:38.109Z,953.8
2023-02-19T09:16:40.123Z,953.8
2023-02-19T09:17:42.071Z,953.8
2023-02-19T09:18:43.838Z,953.8
2023-02-19T09:19:45.560Z,953.8
2023-02-19T09:20:47.316Z,953.8
2023-02-19T09:21:49.272Z,953.7
2023-02-19T09:22:51.125Z,953.7
2023-02-19T09:23:52.907Z,953.7
2023-02-19T09:24:54.728Z,953.7
2023-02-19T09:25:56.464Z,953.7
2023-02-19T09:27:00.886Z,953.7
2023-02-19T09:28:02.818Z,953.6
2023-02-19T09:29:04.669Z,953.7
2023-02-19T09:30:06.576Z,953.6
2023-02-19T09:31:09.149Z,953.7
2023-02-19T09:32:11.925Z,953.7
2023-02-19T09:33:14.028Z,953.7
2023-02-19T09:34:15.866Z,953.7
2023-02-19T09:35:17.713Z,953.7
2023-02-19T09:36:19.693Z,953.6
2023-02-19T09:37:21.426Z,953.6
2023-02-19T09:38:23.266Z,953.6
2023-02-19T09:39:25.114Z,953.6
2023-02-19T09:40:26.997Z,953.6
2023-02-19T09:41:28.832Z,953.6
2023-02-19T09:42:30.673Z,953.5
2023-02-19T09:43:32.522Z,953.5
2023-02-19T09:44:34.276Z,953.6
2023-02-19T09:45:35.944Z,953.6
2023-02-19T09:46:37.778Z,953.5
2023-02-19T09:47:39.711Z,953.6
2023-02-19T09:48:41.573Z,953.5
2023-02-19T09:49:43.421Z,953.6
2023-02-19T09:50:45.285Z,953.6
2023-02-19T09:51:47.158Z,953.5
2023-02-19T09:52:48.965Z,953.5
2023-02-19T09:53:50.832Z,953.5
2023-02-19T09:54:52.673Z,953.5
2023-02-19T09:55:54.520Z,953.5
2023-02-19T09:56:56.964Z,953.4
2023-02-19T09:57:59.242Z,953.4
2023-02-19T09:59:00.989Z,953.4
2023-02-19T10:00:02.842Z,953.4
2023-02-19T10:01:04.686Z,953.4
2023-02-19T10:02:06.747Z,953.3
2023-02-19T10:03:08.595Z,953.3
2023-02-19T10:04:10.537Z,953.2
2023-02-19T10:05:12.577Z,953.2
2023-02-19T10:06:14.557Z,953.2
2023-02-19T10:07:16.399Z,953.2
2023-02-19T10:08:18.457Z,953.1
2023-02-19T10:09:20.279Z,953.1
2023-02-19T10:10:22.159Z,953.1
2023-02-19T10:11:24.010Z,953.1
2023-02-19T10:12:25.677Z,953.1
2023-02-19T10:13:27.501Z,953
2023-02-19T10:14:29.548Z,953.1
2023-02-19T10:15:31.314Z,953.1
2023-02-19T10:16:33.113Z,953
2023-02-19T10:17:34.999Z,953
2023-02-19T10:18:36.791Z,953
2023-02-19T10:19:38.601Z,952.9
2023-02-19T10:20:40.369Z,952.9
2023-02-19T10:21:42.394Z,952.9
2023-02-19T10:22:44.243Z,952.9
2023-02-19T10:23:45.990Z,952.9
2023-02-19T10:24:47.852Z,952.8
2023-02-19T10:25:49.692Z,952.8
2023-02-19T10:26:51.642Z,952.8
2023-02-19T10:27:56.132Z,952.8
2023-02-19T10:28:58.047Z,952.8
2023-02-19T10:29:59.925Z,952.8
2023-02-19T10:31:02.223Z,952.8
2023-02-19T10:32:04.182Z,952.8
2023-02-19T10:33:06.036Z,952.7
2023-02-19T10:34:07.972Z,952.7
2023-02-19T10:35:09.831Z,952.7
2023-02-19T10:36:11.671Z,952.6
2023-02-19T10:37:13.524Z,952.6
2023-02-19T10:38:15.199Z,952.6
2023-02-19T10:39:17.125Z,952.6
2023-02-19T10:40:19.179Z,952.5
2023-02-19T10:41:21.094Z,952.5
2023-02-19T10:42:23.013Z,952.5
2023-02-19T10:43:24.797Z,952.5
2023-02-19T10:44:26.607Z,952.5
2023-02-19T10:45:28.435Z,952.5
2023-02-19T10:46:30.501Z,952.5
2023-02-19T10:47:32.545Z,952.4
2023-02-19T10:48:34.395Z,952.4
2023-02-19T10:49:36.247Z,952.4
2023-02-19T10:50:38.087Z,952.4
2023-02-19T10:51:40.155Z,952.3
2023-02-19T10:52:41.993Z,952.3
2023-02-19T10:53:43.817Z,952.3
2023-02-19T10:54:45.699Z,952.3
2023-02-19T10:55:47.440Z,952.2
2023-02-19T10:56:49.403Z,952.2
2023-02-19T10:57:51.145Z,952.3
2023-02-19T10:58:52.988Z,952.2
2023-02-19T10:59:54.851Z,952.2
2023-02-19T11:00:56.687Z,952.2
2023-02-19T11:01:58.952Z,952.1
2023-02-19T11:03:00.900Z,952.1
2023-02-19T11:04:02.637Z,952.1
2023-02-19T11:05:04.504Z,952.1
2023-02-19T11:06:06.354Z,952.1
2023-02-19T11:07:08.300Z,952.1
2023-02-19T11:08:10.155Z,952
2023-02-19T11:09:11.911Z,951.9
2023-02-19T11:10:13.854Z,951.9
2023-02-19T11:11:15.705Z,951.9
2023-02-19T11:12:17.752Z,951.9
2023-02-19T11:13:19.546Z,951.9
2023-02-19T11:14:21.279Z,951.9
2023-02-19T11:15:23.005Z,951.8
2023-02-19T11:16:25.008Z,951.8
2023-02-19T11:17:26.955Z,951.8
2023-02-19T11:18:28.772Z,951.8
2023-02-19T11:19:30.811Z,951.8
2023-02-19T11:20:32.660Z,951.8
2023-02-19T11:21:34.522Z,951.8
2023-02-19T11:22:36.465Z,951.8
2023-02-19T11:23:38.290Z,951.7
2023-02-19T11:24:40.266Z,951.7
2023-02-19T11:25:42.115Z,951.7
2023-02-19T11:26:43.862Z,951.7
2023-02-19T11:27:45.821Z,951.7
2023-02-19T11:28:47.877Z,951.7
2023-02-19T11:29:49.726Z,951.6
2023-02-19T11:30:51.578Z,951.6
2023-02-19T11:31:53.647Z,951.6
2023-02-19T11:32:55.691Z,951.6
2023-02-19T11:33:57.560Z,951.6
2023-02-19T11:34:59.328Z,951.6
2023-02-19T11:36:01.054Z,951.6
2023-02-19T11:37:02.992Z,951.6
2023-02-19T11:38:04.824Z,951.5
2023-02-19T11:39:06.683Z,951.5
2023-02-19T11:40:08.529Z,951.5
2023-02-19T11:41:11.792Z,951.5
2023-02-19T11:42:14.096Z,951.4
2023-02-19T11:43:16.028Z,951.4
2023-02-19T11:44:17.991Z,951.4
2023-02-19T11:45:19.838Z,951.4
2023-02-19T11:46:21.812Z,951.5
2023-02-19T11:47:23.666Z,951.4
2023-02-19T11:48:25.509Z,951.4
2023-02-19T11:49:27.443Z,951.4
2023-02-19T11:50:29.291Z,951.4
2023-02-19T11:51:31.131Z,951.4
2023-02-19T11:52:32.877Z,951.3
2023-02-19T11:53:34.837Z,951.3
2023-02-19T11:54:36.683Z,951.3
2023-02-19T11:55:38.533Z,951.3
2023-02-19T11:56:40.289Z,951.2
2023-02-19T11:57:42.245Z,951.3
2023-02-19T11:58:44.021Z,951.2
2023-02-19T11:59:45.809Z,951.2
2023-02-19T12:00:47.673Z,951.2
2023-02-19T12:01:49.617Z,951.1
2023-02-19T12:02:51.585Z,951.1
2023-02-19T12:03:53.541Z,951.1
2023-02-19T12:04:55.434Z,951.1
2023-02-19T12:05:57.306Z,951.1
2023-02-19T12:06:59.129Z,951.1
2023-02-19T12:08:00.936Z,951
2023-02-19T12:09:02.820Z,951
2023-02-19T12:10:04.643Z,951.1
2023-02-19T12:11:09.148Z,951
2023-02-19T12:12:11.002Z,951
2023-02-19T12:13:12.854Z,950.9
2023-02-19T12:14:14.894Z,951
2023-02-19T12:15:16.746Z,950.9
2023-02-19T12:16:18.850Z,950.9
2023-02-19T12:17:20.764Z,950.9
2023-02-19T12:18:22.610Z,950.9
2023-02-19T12:19:24.350Z,950.9
2023-02-19T12:20:26.209Z,950.9
2023-02-19T12:21:28.169Z,950.8
2023-02-19T12:22:30.010Z,950.8
2023-02-19T12:23:31.968Z,950.8
2023-02-19T12:24:33.817Z,950.7
2023-02-19T12:25:35.565Z,950.7
2023-02-19T12:26:37.524Z,950.7
2023-02-19T12:27:39.259Z,950.7
2023-02-19T12:28:41.116Z,950.6
2023-02-19T12:29:43.069Z,950.6
2023-02-19T12:30:45.047Z,950.7
2023-02-19T12:31:47.003Z,950.6
2023-02-19T12:32:48.816Z,950.6
2023-02-19T12:33:50.560Z,950.6
2023-02-19T12:34:52.412Z,950.6
2023-02-19T12:35:54.270Z,950.5
2023-02-19T12:36:56.070Z,950.5
2023-02-19T12:37:57.865Z,950.5
2023-02-19T12:38:59.724Z,950.4
2023-02-19T12:40:01.672Z,950.4
2023-02-19T12:41:03.517Z,950.4
2023-02-19T12:42:05.464Z,950.4
2023-02-19T12:43:07.328Z,950.3
2023-02-19T12:44:11.840Z,950.3
2023-02-19T12:45:13.689Z,950.3
2023-02-19T12:46:15.973Z,950.3
2023-02-19T12:47:18.002Z,950.2
2023-02-19T12:48:19.853Z,950.2
2023-02-19T12:49:21.700Z,950.2
2023-02-19T12:50:23.550Z,950.2
2023-02-19T12:51:25.400Z,950.2
2023-02-19T12:52:27.194Z,950.2
2023-02-19T12:53:29.044Z,950.1
2023-02-19T12:54:30.837Z,950.1
2023-02-19T12:55:32.636Z,950.1
2023-02-19T12:56:34.457Z,950.1
2023-02-19T12:57:36.264Z,950
2023-02-19T12:58:38.140Z,950
2023-02-19T12:59:39.989Z,949.9
2023-02-19T13:00:41.968Z,949.9
2023-02-19T13:01:43.896Z,949.9
2023-02-19T13:02:45.766Z,949.9
2023-02-19T13:03:47.524Z,949.9
2023-02-19T13:04:49.350Z,949.9
2023-02-19T13:05:51.211Z,949.9
2023-02-19T13:06:53.050Z,949.8
2023-02-19T13:07:54.864Z,949.8
2023-02-19T13:09:07.824Z,949.8
2023-02-19T13:10:09.681Z,949.8
2023-02-19T13:11:12.728Z,949.8
2023-02-19T13:12:15.312Z,949.8
2023-02-19T13:13:17.145Z,949.8
2023-02-19T13:14:18.998Z,949.8
2023-02-19T13:15:20.641Z,949.7
2023-02-19T13:16:22.625Z,949.7
2023-02-19T13:17:24.655Z,949.7
2023-02-19T13:18:26.503Z,949.7
2023-02-19T13:19:28.453Z,949.7
2023-02-19T13:20:30.304Z,949.7
2023-02-19T13:21:35.454Z,949.7
2023-02-19T13:22:37.388Z,949.7
2023-02-19T13:23:39.237Z,949.7
2023-02-19T13:24:41.499Z,949.6